Terminal Aerodrome Forecast
Issued by NWS

Home | Current Version | Previous Version | Text Only | Print | Product List | Glossary On
Versions: 1 2 3 4 5 6 7 8 9 10 11 12 13 14 15 16 17 18 19 20 21 22 23 24 25 26 27 28 29 30 31 32 33 34
341
FTUS41 KBOX 080538
TAFHYA
TAF
KHYA 080538Z 0806/0906 06015G25KT P6SM OVC030
     FM080800 06019G30KT 2SM -RA OVC025
     FM081000 05021G37KT 1SM -SN OVC020
     FM081200 04023G43KT 1/4SM +SN OVC010
     FM081400 04024G50KT 1/4SM +SN OVC010
     FM081800 02025G49KT 1/2SM SN OVC010
     FM090000 02016G34KT 2SM -SN OVC020
     FM090300 01013G26KT 2SM -SHSN OVC015=

USA.gov is the U.S. government's official web portal to all federal, state and local government web resources and services.